Laporte Municipal Airport

About
Name: Laporte Municipal Airport
Identifier:  LPO/KPPO
Serves:  La Porte, Indiana
Owner:  La Porte Airport Authority
Public/Private:  Public
Local Time:  20. Aug 09:36 CDT
Description: Coordinates: 41°34′21″N 086°44′04″W / 41.57250°N 86.73444°W / 41.57250; -86.73444
Source: Wikipedia
Location
Runways
Identifier Length (m/ft) Surface
2/20 5,000/5,000 Asphalt
14/32 2,800/2,800 Asphalt
Flights per Day
0 flights
Distance: 359km (223mi)
Punctuality
-100% (0 flights per day delayed)
Delay Average: 13 minutes
Current Weather
 25 C (Humidity: 88%)
  6kt (11km/h / 6mph) from 230°
  16km (10 mi.)
 
 METAR KPPO 201355Z AUTO 23006KT 10SM CLR 25/23 A3002 RMK AO2 T02450229

Current Flights

Departures
Number Departure To Airline
Arrivals
Number Arrival From Airline

Current Delays

Departures
N/A
Arrivals
N/A

Destinations

Top Destinations
Airport Flights
per week
Seats
per week
  Traverse City (TVC) 0 - 0 0
  Lafayette (LAF) 0 - 0 0
  Chicago (ORD) 0 - 0 0
  Buffalo (BUF) 0 - 0 0
  Jacksonville (IJX) 0 - 0 0
  Chicago (DPA) 0 - 0 0
  Chicago (MDW) 0 - 0 0
  Minneapolis (MSP) 0 - 0 0

Airlines & Planes

Top Airlines
Airline Flights
per Day
Seats
per Day
  Nolinor Aviation 0 -
  National Airlines 0 -
Jet Charter Inc ( Franklin Lakes Nj ) 0 -
Flexjet 0 -
  Flybe Nordic 0 -
NetJets 0 0
Top Plane Types
Model Flights Seats
Beech 58 0.1/day - 0
Bombardier Challenger 350 0.0/day - -0.06666666666666667
Bombardier Challenger 300 0.0/day - 0
Cessna C25B 0.0/day - 0